Terminal Aerodrome Forecast
Issued by NWS Omaha/Valley, NE

Home | Current Version | Previous Version | Text Only | Print | Product List | Glossary On
Versions: 1 2 3 4 5 6 7 8 9 10 11 12 13 14 15 16 17 18 19 20 21 22 23 24
000
FTUS43 KOAX 190520
TAFOFK
TAF
KOFK 190520Z 1906/2006 17007KT P6SM SCT250
     FM190900 19009KT P6SM SCT250 WS015/23042KT
     FM191600 21011KT P6SM BKN150
     FM192200 28007KT P6SM SCT250=

USA.gov is the U.S. government's official web portal to all federal, state and local government web resources and services.